createdAt,value
2022-09-20T00:02:50.829Z,0.83
2022-09-20T00:05:53.904Z,1.17
2022-09-20T00:08:59.680Z,1.40
2022-09-20T00:12:03.453Z,1.17
2022-09-20T00:15:07.258Z,1.00
2022-09-20T00:18:10.572Z,1.27
2022-09-20T00:21:17.977Z,1.00
2022-09-20T00:24:22.473Z,1.07
2022-09-20T00:27:25.605Z,1.00
2022-09-20T00:30:29.361Z,0.80
2022-09-20T00:33:46.340Z,0.80
2022-09-20T00:36:49.422Z,1.20
2022-09-20T00:39:53.827Z,1.17
2022-09-20T00:42:56.925Z,1.97
2022-09-20T00:46:00.541Z,1.13
2022-09-20T00:49:13.034Z,1.00
2022-09-20T00:52:18.052Z,1.30
2022-09-20T00:55:23.563Z,1.30
2022-09-20T00:58:29.555Z,1.30
2022-09-20T01:01:33.054Z,1.00
2022-09-20T01:04:40.034Z,0.80
2022-09-20T01:07:44.244Z,1.00
2022-09-20T01:10:49.023Z,1.30
2022-09-20T01:13:52.174Z,1.40
2022-09-20T01:16:58.615Z,1.60
2022-09-20T01:20:15.330Z,1.30
2022-09-20T01:23:47.489Z,1.57
2022-09-20T01:27:06.992Z,2.17
2022-09-20T01:30:16.148Z,2.07
2022-09-20T01:33:29.914Z,1.17
2022-09-20T01:36:39.119Z,0.83
2022-09-20T01:39:51.665Z,1.50
2022-09-20T01:43:03.875Z,1.33
2022-09-20T01:46:22.898Z,1.10
2022-09-20T01:49:33.851Z,1.40
2022-09-20T01:53:07.996Z,1.30
2022-09-20T01:56:40.220Z,0.90
2022-09-20T02:00:08.609Z,1.30
2022-09-20T02:03:52.961Z,1.20
2022-09-20T02:07:21.833Z,1.00
2022-09-20T02:10:43.199Z,1.20
2022-09-20T02:14:05.575Z,0.80
2022-09-20T02:17:14.629Z,0.90
2022-09-20T02:20:33.159Z,1.30
2022-09-20T02:23:49.097Z,1.10
2022-09-20T02:27:06.643Z,1.40
2022-09-20T02:30:20.746Z,1.00
2022-09-20T02:33:45.418Z,0.90
2022-09-20T02:36:57.531Z,1.33
2022-09-20T02:40:15.232Z,1.90
2022-09-20T02:43:27.053Z,2.20
2022-09-20T02:46:36.470Z,1.60
2022-09-20T02:49:54.778Z,2.07
2022-09-20T02:53:13.715Z,1.63
2022-09-20T02:56:23.456Z,1.60
2022-09-20T02:59:33.310Z,1.60
2022-09-20T03:02:51.451Z,1.40
2022-09-20T03:06:03.036Z,1.80
2022-09-20T03:09:17.360Z,1.63
2022-09-20T03:12:34.858Z,2.00
2022-09-20T03:15:50.093Z,2.20
2022-09-20T03:19:04.534Z,1.20
2022-09-20T03:22:19.653Z,1.20
2022-09-20T03:25:40.581Z,1.10
2022-09-20T03:28:59.131Z,0.90
2022-09-20T03:32:18.812Z,1.10
2022-09-20T03:35:35.132Z,1.00
2022-09-20T03:38:55.507Z,1.20
2022-09-20T03:42:17.145Z,1.27
2022-09-20T03:45:33.401Z,1.10
2022-09-20T03:49:08.187Z,1.10
2022-09-20T03:52:29.113Z,1.53
2022-09-20T03:55:47.522Z,1.30
2022-09-20T03:59:10.981Z,1.60
2022-09-20T04:02:31.302Z,1.40
2022-09-20T04:05:46.808Z,1.47
2022-09-20T04:09:05.992Z,1.73
2022-09-20T04:12:20.474Z,1.33
2022-09-20T04:15:37.409Z,1.33
2022-09-20T04:18:46.758Z,1.17
2022-09-20T04:21:56.847Z,1.47
2022-09-20T04:25:05.487Z,1.30
2022-09-20T04:28:14.238Z,1.40
2022-09-20T04:31:31.822Z,1.30
2022-09-20T04:34:57.325Z,1.70
2022-09-20T04:38:06.207Z,1.40
2022-09-20T04:41:55.960Z,0.90
2022-09-20T04:45:33.234Z,1.30
2022-09-20T04:49:02.396Z,2.07
2022-09-20T04:52:51.018Z,3.57
2022-09-20T04:55:56.999Z,3.77
2022-09-20T04:59:08.919Z,8.03
2022-09-20T05:02:50.343Z,4.30
2022-09-20T05:06:16.048Z,3.20
2022-09-20T05:10:07.356Z,2.83
2022-09-20T05:13:28.457Z,3.13
2022-09-20T05:16:50.979Z,2.60
2022-09-20T05:20:15.343Z,2.40
2022-09-20T05:23:47.602Z,2.73
2022-09-20T05:27:04.474Z,2.80
2022-09-20T05:30:15.617Z,2.50
2022-09-20T05:33:24.900Z,2.37
2022-09-20T05:36:37.683Z,3.00
2022-09-20T05:39:46.894Z,2.57
2022-09-20T05:42:56.253Z,2.00
2022-09-20T05:46:17.257Z,2.50
2022-09-20T05:49:37.180Z,3.37
2022-09-20T05:52:50.547Z,2.73
2022-09-20T05:56:03.937Z,2.77
2022-09-20T05:59:23.210Z,2.43
2022-09-20T06:02:39.329Z,2.47
2022-09-20T06:05:54.464Z,2.00
2022-09-20T06:09:34.275Z,2.30
2022-09-20T06:12:52.909Z,2.13
2022-09-20T06:16:00.818Z,2.10
2022-09-20T06:19:17.208Z,2.20
2022-09-20T06:22:25.792Z,2.07
2022-09-20T06:25:33.316Z,2.10
2022-09-20T06:28:42.435Z,2.60
2022-09-20T06:31:45.562Z,3.10
2022-09-20T06:34:49.487Z,2.30
2022-09-20T06:38:15.261Z,2.33
2022-09-20T06:41:28.375Z,2.50
2022-09-20T06:44:32.818Z,2.60
2022-09-20T06:47:38.757Z,2.20
2022-09-20T06:50:43.472Z,2.13
2022-09-20T06:53:46.565Z,2.77
2022-09-20T06:56:51.292Z,2.60
2022-09-20T06:59:55.738Z,3.13
2022-09-20T07:02:58.801Z,2.13
2022-09-20T07:06:03.109Z,1.43
2022-09-20T07:09:06.604Z,1.20
2022-09-20T07:12:12.448Z,1.30
2022-09-20T07:15:17.109Z,1.60
2022-09-20T07:18:20.217Z,1.40
2022-09-20T07:21:23.512Z,1.00
2022-09-20T07:24:26.855Z,1.20
2022-09-20T07:27:30.324Z,1.50
2022-09-20T07:30:34.811Z,1.10
2022-09-20T07:33:37.926Z,1.10
2022-09-20T07:36:41.044Z,1.47
2022-09-20T07:39:45.676Z,1.10
2022-09-20T07:42:51.055Z,1.37
2022-09-20T07:45:59.406Z,1.10
2022-09-20T07:49:02.621Z,1.10
2022-09-20T07:52:06.014Z,1.00
2022-09-20T07:55:10.057Z,1.00
2022-09-20T07:58:13.191Z,1.10
2022-09-20T08:01:17.748Z,1.10
2022-09-20T08:04:20.896Z,0.90
2022-09-20T08:07:24.331Z,1.10
2022-09-20T08:10:27.718Z,0.80
2022-09-20T08:16:58.320Z,0.97
2022-09-20T08:20:01.472Z,1.13
2022-09-20T08:23:22.438Z,1.13
2022-09-20T08:26:28.367Z,0.50
2022-09-20T08:29:31.484Z,0.40
2022-09-20T08:32:35.942Z,0.40
2022-09-20T08:35:39.081Z,0.70
2022-09-20T08:42:14.441Z,0.50
2022-09-20T08:45:22.686Z,0.35
2022-09-20T08:48:38.021Z,0.75
2022-09-20T08:51:42.929Z,0.30
2022-09-20T08:54:46.839Z,0.50
2022-09-20T08:57:52.030Z,0.50
2022-09-20T09:00:58.779Z,0.30
2022-09-20T09:04:14.813Z,0.40
2022-09-20T09:07:21.814Z,0.38
2022-09-20T09:10:25.014Z,0.40
2022-09-20T09:13:34.263Z,0.50
2022-09-20T09:16:37.697Z,0.40
2022-09-20T09:19:50.459Z,0.40
2022-09-20T09:23:02.740Z,0.40
2022-09-20T09:26:06.943Z,0.35
2022-09-20T09:29:16.541Z,0.20
2022-09-20T09:32:27.490Z,0.20
2022-09-20T09:35:32.757Z,0.35
2022-09-20T09:38:37.943Z,0.20
2022-09-20T09:41:41.189Z,0.32
2022-09-20T09:44:44.472Z,0.30
2022-09-20T09:47:47.565Z,0.30
2022-09-20T09:50:53.427Z,0.20
2022-09-20T09:53:57.905Z,0.23
2022-09-20T09:57:22.159Z,0.20
2022-09-20T10:00:27.094Z,0.28
2022-09-20T10:03:48.544Z,0.20
2022-09-20T10:06:58.819Z,0.20
2022-09-20T10:10:10.323Z,0.28
2022-09-20T10:13:20.071Z,0.40
2022-09-20T10:16:35.240Z,0.30
2022-09-20T10:19:54.755Z,0.20
2022-09-20T10:23:39.411Z,0.30
2022-09-20T10:27:15.315Z,0.20
2022-09-20T10:30:23.295Z,0.40
2022-09-20T10:33:37.571Z,0.30
2022-09-20T10:36:50.634Z,0.30
2022-09-20T10:40:08.101Z,0.45
2022-09-20T10:43:22.344Z,0.28
2022-09-20T10:46:35.805Z,0.30
2022-09-20T10:49:48.463Z,0.20
2022-09-20T10:53:06.523Z,1.40
2022-09-20T10:56:24.098Z,0.30
2022-09-20T10:59:47.284Z,0.50
2022-09-20T11:03:05.117Z,0.30
2022-09-20T11:06:17.618Z,0.30
2022-09-20T11:09:23.147Z,0.40
2022-09-20T11:12:34.552Z,0.20
2022-09-20T11:15:43.497Z,0.53
2022-09-20T11:18:52.934Z,0.27
2022-09-20T11:22:02.277Z,0.30
2022-09-20T11:25:18.035Z,0.40
2022-09-20T11:28:30.510Z,0.30
2022-09-20T11:31:39.516Z,0.50
2022-09-20T11:34:51.129Z,0.30
2022-09-20T11:38:04.429Z,0.40
2022-09-20T11:41:12.902Z,0.40
2022-09-20T11:44:20.438Z,0.40
2022-09-20T11:47:52.890Z,0.30
2022-09-20T11:51:26.257Z,0.50
2022-09-20T11:54:55.975Z,0.43
2022-09-20T11:58:04.946Z,0.70
2022-09-20T12:01:14.173Z,0.40
2022-09-20T12:04:38.620Z,0.70
2022-09-20T12:07:44.807Z,0.30
2022-09-20T12:10:57.680Z,0.43
2022-09-20T12:14:06.159Z,0.53
2022-09-20T12:17:51.306Z,0.30
2022-09-20T12:21:09.022Z,0.30
2022-09-20T12:24:21.349Z,0.60
2022-09-20T12:27:58.478Z,0.47
2022-09-20T12:31:32.465Z,0.40
2022-09-20T12:34:37.833Z,0.43
2022-09-20T12:37:40.987Z,0.40
2022-09-20T12:40:59.923Z,0.40
2022-09-20T12:44:08.258Z,0.50
2022-09-20T12:47:20.027Z,0.43
2022-09-20T12:50:41.384Z,0.37
2022-09-20T12:53:45.283Z,0.60
2022-09-20T12:56:48.991Z,0.40
2022-09-20T12:59:58.900Z,0.50
2022-09-20T13:03:11.268Z,0.60
2022-09-20T13:06:26.000Z,0.47
2022-09-20T13:09:29.723Z,0.60
2022-09-20T13:12:33.216Z,0.40
2022-09-20T13:15:39.440Z,0.40
2022-09-20T13:18:43.451Z,0.40
2022-09-20T13:21:54.463Z,0.40
2022-09-20T13:25:01.081Z,0.50
2022-09-20T13:28:10.311Z,0.60
2022-09-20T13:31:35.838Z,0.50
2022-09-20T13:34:39.051Z,0.40
2022-09-20T13:37:51.407Z,0.47
2022-09-20T13:41:00.066Z,0.30
2022-09-20T13:44:03.599Z,0.30
2022-09-20T13:50:35.950Z,0.30
2022-09-20T13:53:41.867Z,0.40
2022-09-20T13:56:45.579Z,0.30
2022-09-20T13:59:49.440Z,0.30
2022-09-20T14:02:54.726Z,0.40
2022-09-20T14:06:01.926Z,0.40
2022-09-20T14:09:11.356Z,0.40
2022-09-20T14:12:15.484Z,0.30
2022-09-20T14:15:18.802Z,0.40
2022-09-20T14:18:23.274Z,0.30
2022-09-20T14:21:29.263Z,0.40
2022-09-20T14:24:35.664Z,0.40
2022-09-20T14:27:39.130Z,0.37
2022-09-20T14:30:42.667Z,0.50
2022-09-20T14:33:54.793Z,0.50
2022-09-20T14:37:08.011Z,0.87
2022-09-20T14:40:23.829Z,0.60
2022-09-20T14:43:31.972Z,0.60
2022-09-20T14:46:38.811Z,0.50
2022-09-20T14:49:43.898Z,0.50
2022-09-20T14:52:48.395Z,0.50
2022-09-20T14:55:59.684Z,0.50
2022-09-20T14:59:24.744Z,0.50
2022-09-20T15:02:28.402Z,0.60
2022-09-20T15:05:31.768Z,0.60
2022-09-20T15:08:36.875Z,0.57
2022-09-20T15:11:40.835Z,0.40
2022-09-20T15:14:44.214Z,0.70
2022-09-20T15:17:48.891Z,0.53
2022-09-20T15:20:52.181Z,0.50
2022-09-20T15:23:56.614Z,0.50
2022-09-20T15:26:59.727Z,0.37
2022-09-20T15:30:02.788Z,0.50
2022-09-20T15:33:05.897Z,0.30
2022-09-20T15:36:09.413Z,0.50
2022-09-20T15:39:14.043Z,0.30
2022-09-20T15:42:17.158Z,0.40
2022-09-20T15:45:21.389Z,0.30
2022-09-20T15:48:26.485Z,0.40
2022-09-20T15:51:30.470Z,0.63
2022-09-20T15:54:35.465Z,0.40
2022-09-20T15:57:39.614Z,0.50
2022-09-20T16:00:42.706Z,0.30
2022-09-20T16:03:47.018Z,0.40
2022-09-20T16:06:51.276Z,0.30
2022-09-20T16:09:57.209Z,0.67
2022-09-20T16:13:00.476Z,0.67
2022-09-20T16:16:04.927Z,0.57
2022-09-20T16:19:21.107Z,0.50
2022-09-20T16:22:24.267Z,0.50
2022-09-20T16:25:28.807Z,0.40
2022-09-20T16:28:31.909Z,0.40
2022-09-20T16:31:39.957Z,0.50
2022-09-20T16:34:43.219Z,0.40
2022-09-20T16:37:46.889Z,0.50
2022-09-20T16:40:52.625Z,0.70
2022-09-20T16:43:56.418Z,0.80
2022-09-20T16:46:59.550Z,0.80
2022-09-20T16:50:03.212Z,0.50
2022-09-20T16:53:06.297Z,0.63
2022-09-20T16:56:21.580Z,0.60
2022-09-20T16:59:24.787Z,0.70
2022-09-20T17:02:27.944Z,0.60
2022-09-20T17:05:31.012Z,0.70
2022-09-20T17:08:39.315Z,0.50
2022-09-20T17:11:45.762Z,0.80
2022-09-20T17:14:48.931Z,0.90
2022-09-20T17:17:52.052Z,0.70
2022-09-20T17:20:55.536Z,0.80
2022-09-20T17:24:00.619Z,0.57
2022-09-20T17:27:05.851Z,0.90
2022-09-20T17:30:10.251Z,0.67
2022-09-20T17:33:13.354Z,0.70
2022-09-20T17:36:18.848Z,0.70
2022-09-20T17:39:22.083Z,0.80
2022-09-20T17:42:27.827Z,1.23
2022-09-20T17:45:30.957Z,1.03
2022-09-20T17:48:35.325Z,0.70
2022-09-20T17:51:39.862Z,1.13
2022-09-20T17:54:43.180Z,0.90
2022-09-20T17:57:48.624Z,0.70
2022-09-20T18:00:51.795Z,0.80
2022-09-20T18:03:56.236Z,0.67
2022-09-20T18:06:59.363Z,0.40
2022-09-20T18:10:02.462Z,0.60
2022-09-20T18:13:06.926Z,0.70
2022-09-20T18:16:11.991Z,0.60
2022-09-20T18:19:16.302Z,0.83
2022-09-20T18:22:19.659Z,0.80
2022-09-20T18:25:24.129Z,0.73
2022-09-20T18:28:28.965Z,0.97
2022-09-20T18:31:36.174Z,1.20
2022-09-20T18:34:39.630Z,1.30
2022-09-20T18:37:42.704Z,1.97
2022-09-20T18:40:55.215Z,1.50
2022-09-20T18:43:59.918Z,1.60
2022-09-20T18:47:03.899Z,1.67
2022-09-20T18:50:10.471Z,1.93
2022-09-20T18:53:13.727Z,1.97
2022-09-20T18:56:28.151Z,1.40
2022-09-20T18:59:33.024Z,1.40
2022-09-20T19:02:57.574Z,1.33
2022-09-20T19:06:08.368Z,1.10
2022-09-20T19:09:19.430Z,1.53
2022-09-20T19:12:28.297Z,1.30
2022-09-20T19:15:55.358Z,1.33
2022-09-20T19:19:19.032Z,0.80
2022-09-20T19:22:33.090Z,1.00
2022-09-20T19:25:44.179Z,0.63
2022-09-20T19:28:47.824Z,0.70
2022-09-20T19:31:55.552Z,1.00
2022-09-20T19:35:01.687Z,0.73
2022-09-20T19:38:15.500Z,1.10
2022-09-20T19:41:29.996Z,1.30
2022-09-20T19:44:39.888Z,1.50
2022-09-20T19:47:55.716Z,1.73
2022-09-20T19:51:01.306Z,1.10
2022-09-20T19:54:05.305Z,0.93
2022-09-20T19:57:14.260Z,1.10
2022-09-20T20:00:20.296Z,0.97
2022-09-20T20:03:27.496Z,0.93
2022-09-20T20:06:34.318Z,1.10
2022-09-20T20:09:43.351Z,1.23
2022-09-20T20:12:55.110Z,1.30
2022-09-20T20:16:03.264Z,1.03
2022-09-20T20:19:25.139Z,1.20
2022-09-20T20:22:47.836Z,1.50
2022-09-20T20:26:00.142Z,1.13
2022-09-20T20:29:05.038Z,1.23
2022-09-20T20:32:08.130Z,1.10
2022-09-20T20:35:15.742Z,1.30
2022-09-20T20:38:18.848Z,0.97
2022-09-20T20:41:23.725Z,1.23
2022-09-20T20:44:27.536Z,1.30
2022-09-20T20:47:30.796Z,1.43
2022-09-20T20:50:35.457Z,1.43
2022-09-20T20:53:40.523Z,1.00
2022-09-20T20:56:44.110Z,1.20
2022-09-20T20:59:47.239Z,1.30
2022-09-20T21:02:56.316Z,1.30
2022-09-20T21:06:01.073Z,1.10
2022-09-20T21:09:06.018Z,1.03
2022-09-20T21:12:09.506Z,1.63
2022-09-20T21:15:13.021Z,1.50
2022-09-20T21:18:16.149Z,1.93
2022-09-20T21:21:22.631Z,1.70
2022-09-20T21:24:25.790Z,1.67
2022-09-20T21:27:29.694Z,1.73
2022-09-20T21:30:32.762Z,1.57
2022-09-20T21:33:37.331Z,1.30
2022-09-20T21:36:42.724Z,1.50
2022-09-20T21:39:46.562Z,1.27
2022-09-20T21:42:49.638Z,1.90
2022-09-20T21:45:53.029Z,1.70
2022-09-20T21:48:57.341Z,1.70
2022-09-20T21:52:01.815Z,1.50
2022-09-20T21:55:05.831Z,1.50
2022-09-20T21:58:09.507Z,1.90
2022-09-20T22:01:14.765Z,2.10
2022-09-20T22:04:18.237Z,1.63
2022-09-20T22:07:23.313Z,1.50
2022-09-20T22:10:26.804Z,2.80
2022-09-20T22:13:29.938Z,1.50
2022-09-20T22:16:34.719Z,1.70
2022-09-20T22:19:37.817Z,1.43
2022-09-20T22:22:42.339Z,1.70
2022-09-20T22:25:45.471Z,1.80
2022-09-20T22:28:49.937Z,1.87
2022-09-20T22:31:53.158Z,2.17
2022-09-20T22:34:57.877Z,2.27
2022-09-20T22:38:02.509Z,1.77
2022-09-20T22:41:06.207Z,1.40
2022-09-20T22:44:09.607Z,1.40
2022-09-20T22:47:12.883Z,1.33
2022-09-20T22:50:16.156Z,1.20
2022-09-20T22:53:20.601Z,1.70
2022-09-20T22:56:25.283Z,1.33
2022-09-20T22:59:28.382Z,1.90
2022-09-20T23:02:31.505Z,1.43
2022-09-20T23:05:34.551Z,1.30
2022-09-20T23:08:39.049Z,2.50
2022-09-20T23:11:45.286Z,1.70
2022-09-20T23:14:48.355Z,1.50
2022-09-20T23:17:51.430Z,1.90
2022-09-20T23:21:02.179Z,1.77
2022-09-20T23:24:08.048Z,1.80
2022-09-20T23:27:11.438Z,1.47
2022-09-20T23:30:14.744Z,1.93
2022-09-20T23:33:17.795Z,1.90
2022-09-20T23:36:21.895Z,1.50
2022-09-20T23:39:26.984Z,1.50
2022-09-20T23:42:30.060Z,1.97
2022-09-20T23:45:33.196Z,1.77
2022-09-20T23:48:37.244Z,2.30
2022-09-20T23:51:40.331Z,1.80
2022-09-20T23:54:44.765Z,1.80
2022-09-20T23:57:48.789Z,2.00
